Time;durP1;ratioP1;P1;durP2;ratioP2;P2;SDS_P1;SDS_P2;PMS_P1;PMS_P2;Temp;Humidity;BMP_temperature;BMP_pressure;BME280_temperature;BME280_humidity;BME280_pressure;Samples;Min_cycle;Max_cycle;Signal;HPM_P1;HPM_P2
2022/01/12 00:02:20;;;;;;;7.20;4.63;;;;;;;;;;4401785;32;20479;-50
2022/01/12 00:04:46;;;;;;;6.90;4.60;;;;;;;;;;4399711;32;20370;-51
2022/01/12 00:07:12;;;;;;;6.60;4.57;;;;;;;;;;4400348;32;20317;-51
2022/01/12 00:09:38;;;;;;;6.40;4.13;;;;;;;;;;4401465;32;20331;-51
2022/01/12 00:12:04;;;;;;;8.27;5.43;;;;;;;;;;4401296;32;20304;-52
2022/01/12 00:14:29;;;;;;;5.60;3.87;;;;;;;;;;4399546;32;20395;-52
2022/01/12 00:16:59;;;;;;;7.27;3.80;;;;;;;;;;4398963;32;20285;-52
2022/01/12 00:19:26;;;;;;;10.63;5.80;;;;;;;;;;4399550;32;20725;-52
2022/01/12 00:21:55;;;;;;;10.87;5.20;;;;;;;;;;4399159;32;20832;-51
2022/01/12 00:24:21;;;;;;;6.77;4.60;;;;;;;;;;4394804;32;20245;-52
2022/01/12 00:34:58;;;;;;;7.53;4.23;;;;;;;;;;4401365;32;20561;-51
2022/01/12 00:37:24;;;;;;;6.43;3.87;;;;;;;;;;4400477;32;20276;-51
2022/01/12 00:39:49;;;;;;;8.37;3.93;;;;;;;;;;4399935;32;20349;-51
2022/01/12 00:42:15;;;;;;;6.40;4.07;;;;;;;;;;4387229;32;20696;-51
2022/01/12 00:44:45;;;;;;;7.07;3.83;;;;;;;;;;4391309;32;20427;-52
2022/01/12 00:47:11;;;;;;;6.23;3.83;;;;;;;;;;4399630;32;20286;-51
2022/01/12 00:49:36;;;;;;;7.00;4.67;;;;;;;;;;4399928;32;20304;-52
2022/01/12 00:52:03;;;;;;;6.57;4.73;;;;;;;;;;4399792;32;20339;-52
2022/01/12 00:54:28;;;;;;;6.60;4.10;;;;;;;;;;4399876;32;20260;-52
2022/01/12 00:56:54;;;;;;;5.23;3.90;;;;;;;;;;4400464;32;20641;-50
2022/01/12 00:59:19;;;;;;;4.57;3.80;;;;;;;;;;4400466;32;20221;-51
2022/01/12 01:01:45;;;;;;;6.43;3.50;;;;;;;;;;4400660;32;20308;-51
2022/01/12 01:04:11;;;;;;;7.00;4.10;;;;;;;;;;4400958;32;20281;-51
2022/01/12 01:06:36;;;;;;;5.10;3.67;;;;;;;;;;4399771;32;20288;-51
2022/01/12 01:09:03;;;;;;;5.20;3.77;;;;;;;;;;4401978;32;20340;-52
2022/01/12 01:11:29;;;;;;;6.43;4.47;;;;;;;;;;4404519;32;20268;-53
2022/01/12 01:14:10;;;;;;;12.47;4.77;;;;;;;;;;4404069;32;20339;-52
2022/01/12 01:27:20;;;;;;;8.07;4.20;;;;;;;;;;4404511;32;20216;-52
2022/01/12 01:29:47;;;;;;;8.17;4.77;;;;;;;;;;4403400;32;20297;-53
2022/01/12 01:32:13;;;;;;;8.07;4.50;;;;;;;;;;4403866;32;20600;-53
2022/01/12 01:34:44;;;;;;;5.83;3.97;;;;;;;;;;4403810;32;20372;-53
2022/01/12 01:37:10;;;;;;;4.93;3.87;;;;;;;;;;4404052;32;20292;-52
2022/01/12 01:39:35;;;;;;;5.03;3.83;;;;;;;;;;4403402;32;20324;-52
2022/01/12 01:42:07;;;;;;;9.87;3.50;;;;;;;;;;4403873;32;20304;-52
2022/01/12 01:53:17;;;;;;;7.27;3.90;;;;;;;;;;4403868;32;20351;-51
2022/01/12 01:53:21;;;;;;;4.87;3.30;;;;;;;;;;4401035;32;20263;-52
2022/01/12 01:55:47;;;;;;;6.50;4.03;;;;;;;;;;4389402;32;20583;-52
2022/01/12 01:58:14;;;;;;;6.47;4.33;;;;;;;;;;4404102;32;20221;-53
2022/01/12 02:00:41;;;;;;;5.10;3.80;;;;;;;;;;4403489;32;20218;-52
2022/01/12 02:03:07;;;;;;;6.00;3.63;;;;;;;;;;4404170;32;20280;-52
2022/01/12 02:05:33;;;;;;;8.40;4.27;;;;;;;;;;4403255;32;20646;-51
2022/01/12 02:07:59;;;;;;;5.17;3.53;;;;;;;;;;4403945;32;20564;-52
2022/01/12 02:10:25;;;;;;;6.07;3.80;;;;;;;;;;4402959;32;20218;-52
2022/01/12 02:12:50;;;;;;;6.17;4.23;;;;;;;;;;4403708;32;20249;-52
2022/01/12 02:15:19;;;;;;;6.23;3.77;;;;;;;;;;4403555;32;20264;-52
2022/01/12 02:37:17;;;;;;;6.50;3.90;;;;;;;;;;4388239;32;20270;-51
2022/01/12 02:40:01;;;;;;;5.47;3.87;;;;;;;;;;4395992;32;20210;-50
2022/01/12 02:42:27;;;;;;;5.00;4.10;;;;;;;;;;4403243;32;20260;-50
2022/01/12 02:53:41;;;;;;;5.60;4.10;;;;;;;;;;4371274;32;20245;-50
2022/01/12 02:56:12;;;;;;;8.07;4.00;;;;;;;;;;4385330;32;20295;-52
2022/01/12 02:58:39;;;;;;;8.77;4.67;;;;;;;;;;4388320;32;20257;-52
2022/01/12 03:03:43;;;;;;;7.13;4.53;;;;;;;;;;4403502;32;20562;-50
2022/01/12 03:06:10;;;;;;;7.50;4.27;;;;;;;;;;4402796;32;20217;-51
2022/01/12 03:08:38;;;;;;;7.10;3.67;;;;;;;;;;4403439;32;20577;-50
2022/01/12 03:11:10;;;;;;;5.63;3.90;;;;;;;;;;4403197;32;20230;-50
2022/01/12 03:13:36;;;;;;;6.63;4.03;;;;;;;;;;4402949;32;20244;-50
2022/01/12 03:16:11;;;;;;;6.40;4.17;;;;;;;;;;4403122;32;20469;-51
2022/01/12 03:18:36;;;;;;;5.70;3.97;;;;;;;;;;4403305;32;20264;-50
2022/01/12 03:21:02;;;;;;;6.27;4.03;;;;;;;;;;4403093;32;20395;-51
2022/01/12 03:23:27;;;;;;;7.83;4.73;;;;;;;;;;4403415;32;20217;-51
2022/01/12 03:25:53;;;;;;;5.63;4.10;;;;;;;;;;4403549;32;20642;-50
2022/01/12 03:28:19;;;;;;;6.17;4.03;;;;;;;;;;4403845;32;20664;-51
2022/01/12 03:30:54;;;;;;;6.40;3.90;;;;;;;;;;4403217;32;20226;-51
2022/01/12 03:33:38;;;;;;;5.37;4.40;;;;;;;;;;4401947;32;20284;-52
2022/01/12 04:09:05;;;;;;;7.57;5.33;;;;;;;;;;4402632;32;20272;-49
2022/01/12 04:11:31;;;;;;;11.20;5.87;;;;;;;;;;4389053;32;20391;-50
2022/01/12 04:13:56;;;;;;;9.67;5.43;;;;;;;;;;4387818;32;20344;-52
2022/01/12 04:16:22;;;;;;;5.97;3.83;;;;;;;;;;4403238;32;20351;-51
2022/01/12 04:18:47;;;;;;;6.87;4.33;;;;;;;;;;4402556;32;20358;-49
2022/01/12 04:21:13;;;;;;;7.57;4.13;;;;;;;;;;4402803;32;20229;-51
2022/01/12 04:23:41;;;;;;;7.47;4.37;;;;;;;;;;4402896;32;20233;-50
2022/01/12 04:26:13;;;;;;;4.70;3.60;;;;;;;;;;4402203;32;20236;-51
2022/01/12 04:28:41;;;;;;;9.23;5.93;;;;;;;;;;4402501;32;20279;-50
2022/01/12 04:31:08;;;;;;;7.93;5.30;;;;;;;;;;4402692;32;20731;-50
2022/01/12 04:33:35;;;;;;;5.60;4.53;;;;;;;;;;4402708;32;20658;-52
2022/01/12 04:36:00;;;;;;;9.00;6.17;;;;;;;;;;4401499;32;20232;-50
2022/01/12 04:38:29;;;;;;;7.83;4.33;;;;;;;;;;4402573;32;20279;-50
2022/01/12 04:40:55;;;;;;;5.67;4.00;;;;;;;;;;4402282;32;20210;-50
2022/01/12 04:43:23;;;;;;;4.73;3.50;;;;;;;;;;4402437;32;20281;-51
2022/01/12 04:50:41;;;;;;;8.03;5.20;;;;;;;;;;4402044;32;20201;-51
2022/01/12 04:53:07;;;;;;;5.23;4.07;;;;;;;;;;4402505;32;20777;-50
2022/01/12 04:55:33;;;;;;;7.60;5.53;;;;;;;;;;4401745;32;20300;-50
2022/01/12 04:57:58;;;;;;;10.20;5.87;;;;;;;;;;4401883;32;20634;-50
2022/01/12 05:00:25;;;;;;;8.23;3.90;;;;;;;;;;4403854;32;20291;-51
2022/01/12 05:13:41;;;;;;;4.60;3.23;;;;;;;;;;4387745;32;20268;-49
2022/01/12 05:16:06;;;;;;;5.13;3.97;;;;;;;;;;4401718;32;20225;-50
2022/01/12 05:18:34;;;;;;;7.07;3.87;;;;;;;;;;4401944;32;20823;-50
2022/01/12 05:21:00;;;;;;;10.07;5.27;;;;;;;;;;4401675;32;20288;-50
2022/01/12 05:23:26;;;;;;;4.67;3.60;;;;;;;;;;4399090;32;20320;-50
2022/01/12 05:25:52;;;;;;;11.23;6.17;;;;;;;;;;4400389;32;20334;-50
2022/01/12 05:28:22;;;;;;;12.30;5.10;;;;;;;;;;4401368;32;20622;-51
2022/01/12 05:30:48;;;;;;;8.37;4.43;;;;;;;;;;4401820;32;20260;-51
2022/01/12 05:33:14;;;;;;;10.93;4.17;;;;;;;;;;4401703;32;20659;-51
2022/01/12 05:35:42;;;;;;;9.50;6.37;;;;;;;;;;4387591;32;20240;-52
2022/01/12 05:38:12;;;;;;;15.93;6.87;;;;;;;;;;4401845;32;20237;-51
2022/01/12 05:40:39;;;;;;;11.40;6.33;;;;;;;;;;4401157;32;20241;-51
2022/01/12 05:43:05;;;;;;;10.60;5.80;;;;;;;;;;4388108;32;20285;-50
2022/01/12 05:45:33;;;;;;;6.53;5.33;;;;;;;;;;4401238;32;20325;-50
2022/01/12 05:50:26;;;;;;;8.87;5.63;;;;;;;;;;4400403;32;20240;-50
2022/01/12 05:52:52;;;;;;;9.57;5.03;;;;;;;;;;4400828;32;20331;-50
2022/01/12 05:55:18;;;;;;;8.07;5.60;;;;;;;;;;4400746;32;20574;-52
2022/01/12 05:57:43;;;;;;;10.63;4.00;;;;;;;;;;4403024;32;20271;-51
2022/01/12 06:00:12;;;;;;;6.33;4.97;;;;;;;;;;4403597;32;20268;-51
2022/01/12 06:02:37;;;;;;;6.97;5.77;;;;;;;;;;4403364;32;20415;-53
2022/01/12 06:05:04;;;;;;;7.63;4.43;;;;;;;;;;4403172;32;20283;-50
2022/01/12 06:07:30;;;;;;;9.00;5.00;;;;;;;;;;4403398;32;20894;-51
2022/01/12 06:09:55;;;;;;;8.53;5.67;;;;;;;;;;4403303;32;20308;-51
2022/01/12 06:12:21;;;;;;;16.27;5.53;;;;;;;;;;4404005;32;20754;-51
2022/01/12 06:14:46;;;;;;;11.77;7.63;;;;;;;;;;4403634;32;20288;-51
2022/01/12 06:17:12;;;;;;;10.50;7.17;;;;;;;;;;4404054;32;20716;-52
2022/01/12 06:19:38;;;;;;;7.17;5.03;;;;;;;;;;4402687;32;20329;-50
2022/01/12 06:22:05;;;;;;;10.53;6.73;;;;;;;;;;4403744;32;20285;-50
2022/01/12 06:24:30;;;;;;;13.20;7.07;;;;;;;;;;4403403;32;20316;-50
2022/01/12 06:26:57;;;;;;;8.40;5.50;;;;;;;;;;4403769;32;20638;-49
2022/01/12 06:29:27;;;;;;;9.67;5.40;;;;;;;;;;4403672;32;20743;-51
2022/01/12 06:31:56;;;;;;;13.07;7.13;;;;;;;;;;4403466;32;20316;-50
2022/01/12 06:34:22;;;;;;;12.67;6.60;;;;;;;;;;4402779;32;20217;-50
2022/01/12 06:36:48;;;;;;;17.90;11.60;;;;;;;;;;4403151;32;20252;-51
2022/01/12 06:39:20;;;;;;;14.50;5.23;;;;;;;;;;4402548;32;20326;-51
2022/01/12 06:41:46;;;;;;;13.23;8.30;;;;;;;;;;4403719;32;20873;-51
2022/01/12 06:44:16;;;;;;;15.50;9.47;;;;;;;;;;4403523;32;20700;-53
2022/01/12 06:46:43;;;;;;;13.43;7.33;;;;;;;;;;4403313;32;20281;-53
2022/01/12 06:49:08;;;;;;;35.70;15.23;;;;;;;;;;4403322;32;20244;-51
2022/01/12 06:51:34;;;;;;;9.90;6.47;;;;;;;;;;4399529;32;20230;-49
2022/01/12 06:53:59;;;;;;;10.80;5.70;;;;;;;;;;4401256;32;20426;-51
2022/01/12 06:56:25;;;;;;;7.27;4.87;;;;;;;;;;4402219;32;20341;-54
2022/01/12 06:58:50;;;;;;;5.43;3.90;;;;;;;;;;4400966;32;20254;-53
2022/01/12 07:01:16;;;;;;;7.63;5.47;;;;;;;;;;4401459;32;20676;-48
2022/01/12 07:03:41;;;;;;;12.30;4.93;;;;;;;;;;4401732;32;20604;-51
2022/01/12 07:06:07;;;;;;;7.87;5.30;;;;;;;;;;4401099;32;20232;-49
2022/01/12 07:08:34;;;;;;;7.20;4.97;;;;;;;;;;4403563;32;20359;-48
2022/01/12 07:11:00;;;;;;;6.23;4.40;;;;;;;;;;4386750;32;20300;-51
2022/01/12 07:13:26;;;;;;;6.47;4.20;;;;;;;;;;4403690;32;20520;-49
2022/01/12 07:15:51;;;;;;;15.07;4.93;;;;;;;;;;4402616;32;20365;-49
2022/01/12 07:18:19;;;;;;;9.73;5.77;;;;;;;;;;4403433;32;20319;-50
2022/01/12 07:20:44;;;;;;;10.83;6.80;;;;;;;;;;4402704;32;20283;-49
2022/01/12 07:23:11;;;;;;;18.97;8.73;;;;;;;;;;4403814;32;20668;-50
2022/01/12 07:25:36;;;;;;;8.57;4.53;;;;;;;;;;4403236;32;20623;-51
2022/01/12 07:28:02;;;;;;;5.63;4.33;;;;;;;;;;4389186;32;20477;-51
2022/01/12 07:30:28;;;;;;;5.27;3.90;;;;;;;;;;4404634;32;20654;-52
2022/01/12 07:32:53;;;;;;;7.53;4.77;;;;;;;;;;4402085;32;20515;-51
2022/01/12 07:35:19;;;;;;;11.33;5.80;;;;;;;;;;4402233;32;20337;-51
2022/01/12 07:37:45;;;;;;;10.93;5.93;;;;;;;;;;4402662;32;20256;-50
2022/01/12 07:40:11;;;;;;;9.93;5.60;;;;;;;;;;4401996;32;20280;-49
2022/01/12 07:42:36;;;;;;;7.13;5.83;;;;;;;;;;4402759;32;20345;-51
2022/01/12 07:45:03;;;;;;;6.47;4.80;;;;;;;;;;4394690;32;21090;-51
2022/01/12 07:47:30;;;;;;;8.57;6.23;;;;;;;;;;4418305;32;20296;-50
2022/01/12 07:49:56;;;;;;;10.90;6.20;;;;;;;;;;4393765;32;20237;-51
2022/01/12 07:52:23;;;;;;;17.77;8.80;;;;;;;;;;4399830;32;20284;-51
2022/01/12 07:54:48;;;;;;;10.20;5.40;;;;;;;;;;4401372;32;20345;-51
2022/01/12 07:57:14;;;;;;;5.93;4.07;;;;;;;;;;4402032;32;20713;-49
2022/01/12 07:59:39;;;;;;;8.30;4.73;;;;;;;;;;4401616;32;20355;-51
2022/01/12 08:02:06;;;;;;;7.17;4.17;;;;;;;;;;4401242;32;20346;-52
2022/01/12 08:04:33;;;;;;;9.97;4.53;;;;;;;;;;4402249;32;20225;-51
2022/01/12 08:06:58;;;;;;;10.97;5.63;;;;;;;;;;4402194;32;20625;-49
2022/01/12 08:09:24;;;;;;;6.83;4.50;;;;;;;;;;4401462;32;20300;-52
2022/01/12 08:11:49;;;;;;;5.53;4.23;;;;;;;;;;4401849;32;20225;-51
2022/01/12 08:14:15;;;;;;;5.67;3.87;;;;;;;;;;4401387;32;20233;-51
2022/01/12 08:16:42;;;;;;;9.50;5.80;;;;;;;;;;4402632;32;20709;-50
2022/01/12 08:19:07;;;;;;;8.50;5.47;;;;;;;;;;4401582;32;20323;-50
2022/01/12 08:21:33;;;;;;;5.53;4.93;;;;;;;;;;4401508;32;20305;-50
2022/01/12 08:23:58;;;;;;;10.40;5.67;;;;;;;;;;4388099;32;20252;-51
2022/01/12 08:26:24;;;;;;;9.93;6.23;;;;;;;;;;4387966;32;20318;-50
2022/01/12 08:28:49;;;;;;;7.73;5.00;;;;;;;;;;4400999;32;20279;-51
2022/01/12 08:31:17;;;;;;;8.67;4.37;;;;;;;;;;4387240;32;20237;-50
2022/01/12 08:33:43;;;;;;;6.30;4.13;;;;;;;;;;4400537;32;20328;-52
2022/01/12 08:36:09;;;;;;;9.57;6.23;;;;;;;;;;4401581;32;20256;-51
2022/01/12 08:38:34;;;;;;;9.43;5.23;;;;;;;;;;4401176;32;20262;-49
2022/01/12 08:41:00;;;;;;;9.40;4.90;;;;;;;;;;4401194;32;20318;-52
2022/01/12 08:43:25;;;;;;;7.67;5.43;;;;;;;;;;4385968;32;20357;-51
2022/01/12 08:45:53;;;;;;;14.30;4.27;;;;;;;;;;4400867;32;20511;-51
2022/01/12 08:48:20;;;;;;;7.90;5.07;;;;;;;;;;4400073;32;20696;-50
2022/01/12 08:50:45;;;;;;;10.27;5.70;;;;;;;;;;4400713;32;20307;-50
2022/01/12 08:53:11;;;;;;;11.20;6.20;;;;;;;;;;4400450;32;20272;-50
2022/01/12 08:55:36;;;;;;;7.53;5.37;;;;;;;;;;4400720;32;20312;-50
2022/01/12 08:58:02;;;;;;;13.30;7.43;;;;;;;;;;4396980;32;20799;-51
2022/01/12 09:00:28;;;;;;;21.80;5.80;;;;;;;;;;4399894;32;20309;-50
2022/01/12 09:02:53;;;;;;;20.53;10.13;;;;;;;;;;4398798;32;20273;-51
2022/01/12 09:05:19;;;;;;;28.20;13.77;;;;;;;;;;4400231;32;20338;-51
2022/01/12 09:07:44;;;;;;;20.23;10.77;;;;;;;;;;4401363;32;20287;-50
2022/01/12 09:10:10;;;;;;;8.13;5.30;;;;;;;;;;4391093;32;20688;-51
2022/01/12 09:12:36;;;;;;;9.43;5.63;;;;;;;;;;4399419;32;20261;-52
2022/01/12 09:15:07;;;;;;;12.43;6.37;;;;;;;;;;4399929;32;20618;-51
2022/01/12 09:17:33;;;;;;;13.03;7.77;;;;;;;;;;4400870;32;20867;-53
2022/01/12 09:19:58;;;;;;;8.53;5.47;;;;;;;;;;4400374;32;20288;-50
2022/01/12 09:22:24;;;;;;;9.13;5.57;;;;;;;;;;4401416;32;20296;-51
2022/01/12 09:24:49;;;;;;;9.37;5.40;;;;;;;;;;4383436;32;20245;-51
2022/01/12 09:27:17;;;;;;;13.00;6.43;;;;;;;;;;4386303;32;20300;-51
2022/01/12 09:29:43;;;;;;;14.17;6.67;;;;;;;;;;4397451;32;20664;-51
2022/01/12 09:32:09;;;;;;;15.00;7.80;;;;;;;;;;4404014;32;20347;-50
2022/01/12 09:34:34;;;;;;;25.60;12.90;;;;;;;;;;4387883;32;20237;-52
2022/01/12 09:37:00;;;;;;;13.83;7.17;;;;;;;;;;4403909;32;20284;-52
2022/01/12 09:39:26;;;;;;;20.17;7.93;;;;;;;;;;4403538;32;20225;-51
2022/01/12 09:41:51;;;;;;;13.23;5.93;;;;;;;;;;4404210;32;20297;-52
2022/01/12 09:44:17;;;;;;;8.83;5.43;;;;;;;;;;4403364;32;20388;-52
2022/01/12 09:46:43;;;;;;;8.67;4.97;;;;;;;;;;4404145;32;20259;-53
2022/01/12 09:49:09;;;;;;;8.67;5.70;;;;;;;;;;4403260;32;21045;-51
2022/01/12 09:51:34;;;;;;;7.10;5.03;;;;;;;;;;4404208;32;20197;-52
2022/01/12 09:54:00;;;;;;;8.40;4.97;;;;;;;;;;4398956;32;20634;-51
2022/01/12 09:56:28;;;;;;;15.17;7.57;;;;;;;;;;4403272;32;20669;-52
2022/01/12 09:58:56;;;;;;;11.07;6.77;;;;;;;;;;4403268;32;20237;-52
2022/01/12 10:01:29;;;;;;;9.80;6.10;;;;;;;;;;4403557;32;20729;-52
2022/01/12 10:04:08;;;;;;;7.13;4.80;;;;;;;;;;4389494;32;20337;-53
2022/01/12 10:06:39;;;;;;;8.57;5.00;;;;;;;;;;4401912;32;20271;-51
2022/01/12 10:09:04;;;;;;;8.87;5.53;;;;;;;;;;4403782;32;20654;-52
2022/01/12 10:11:30;;;;;;;7.97;5.70;;;;;;;;;;4404017;32;20244;-50
2022/01/12 10:14:00;;;;;;;12.23;5.93;;;;;;;;;;4402092;32;20217;-51
2022/01/12 10:16:26;;;;;;;9.63;5.80;;;;;;;;;;4400942;32;20213;-52
2022/01/12 10:18:58;;;;;;;9.83;6.13;;;;;;;;;;4403000;32;20368;-52
2022/01/12 10:21:50;;;;;;;9.80;6.77;;;;;;;;;;4404030;32;20609;-51
2022/01/12 10:24:18;;;;;;;7.60;5.40;;;;;;;;;;4403291;32;20662;-52
2022/01/12 10:26:45;;;;;;;9.67;5.03;;;;;;;;;;4387985;32;20315;-50
2022/01/12 10:29:15;;;;;;;8.47;5.60;;;;;;;;;;4392013;32;20394;-51
2022/01/12 10:31:56;;;;;;;8.20;4.40;;;;;;;;;;4401672;32;20198;-53
2022/01/12 10:34:30;;;;;;;8.00;4.70;;;;;;;;;;4402750;32;20414;-52
2022/01/12 10:36:57;;;;;;;6.70;3.90;;;;;;;;;;4402698;32;20205;-53
2022/01/12 10:39:26;;;;;;;7.57;4.50;;;;;;;;;;4402837;32;20312;-53
2022/01/12 10:42:00;;;;;;;7.37;4.77;;;;;;;;;;4401523;32;20649;-51
2022/01/12 10:44:35;;;;;;;8.30;5.37;;;;;;;;;;4402774;32;20252;-52
2022/01/12 10:47:10;;;;;;;9.07;5.13;;;;;;;;;;4401823;32;20291;-51
2022/01/12 10:49:38;;;;;;;6.60;4.17;;;;;;;;;;4401747;32;20224;-51
2022/01/12 10:52:11;;;;;;;7.90;4.97;;;;;;;;;;4403179;32;20623;-53
2022/01/12 10:54:52;;;;;;;18.93;8.97;;;;;;;;;;4388651;32;20263;-52
2022/01/12 10:57:27;;;;;;;18.10;9.70;;;;;;;;;;4387428;32;20351;-53
2022/01/12 11:00:00;;;;;;;8.63;6.00;;;;;;;;;;4401890;32;20788;-52
2022/01/12 11:02:28;;;;;;;15.40;8.50;;;;;;;;;;4401619;32;20313;-52
2022/01/12 11:04:53;;;;;;;13.57;7.97;;;;;;;;;;4402189;32;20205;-52
2022/01/12 11:07:19;;;;;;;12.70;7.97;;;;;;;;;;4402399;32;20342;-52
2022/01/12 11:09:46;;;;;;;9.77;5.63;;;;;;;;;;4388121;32;20694;-53
2022/01/12 11:12:12;;;;;;;6.40;4.70;;;;;;;;;;4402249;32;20267;-52
2022/01/12 11:14:38;;;;;;;8.13;4.77;;;;;;;;;;4402427;32;20350;-55
2022/01/12 11:17:03;;;;;;;7.90;5.40;;;;;;;;;;4401806;32;20272;-52
2022/01/12 11:19:31;;;;;;;17.20;7.77;;;;;;;;;;4401688;32;20322;-53
2022/01/12 11:22:08;;;;;;;7.90;5.17;;;;;;;;;;4402210;32;20206;-53
2022/01/12 11:24:34;;;;;;;7.57;4.57;;;;;;;;;;4402279;32;20355;-52
2022/01/12 11:27:03;;;;;;;10.50;6.80;;;;;;;;;;4402452;32;20323;-54
2022/01/12 11:29:34;;;;;;;14.60;8.73;;;;;;;;;;4401599;32;20320;-51
2022/01/12 11:32:07;;;;;;;10.73;5.80;;;;;;;;;;4393819;32;20346;-52
2022/01/12 11:34:33;;;;;;;27.63;10.90;;;;;;;;;;4401571;32;20249;-53
2022/01/12 11:36:59;;;;;;;9.97;6.20;;;;;;;;;;4401597;32;20653;-51
2022/01/12 11:39:31;;;;;;;11.57;7.77;;;;;;;;;;4385023;32;20367;-53
2022/01/12 11:41:57;;;;;;;21.77;8.60;;;;;;;;;;4401014;32;20416;-52
2022/01/12 11:44:24;;;;;;;25.53;12.20;;;;;;;;;;4401698;32;20296;-52
2022/01/12 11:46:56;;;;;;;13.13;7.40;;;;;;;;;;4413283;32;20264;-53
2022/01/12 11:49:32;;;;;;;6.87;4.87;;;;;;;;;;4400837;32;20291;-52
2022/01/12 11:51:59;;;;;;;12.57;8.03;;;;;;;;;;4401771;32;20725;-50
2022/01/12 11:54:39;;;;;;;11.07;6.20;;;;;;;;;;4388253;32;20620;-51
2022/01/12 11:57:07;;;;;;;9.23;5.57;;;;;;;;;;4401819;32;20628;-52
2022/01/12 11:59:55;;;;;;;10.90;5.63;;;;;;;;;;4393342;32;20222;-52
2022/01/12 12:02:32;;;;;;;8.97;4.63;;;;;;;;;;4397846;32;20236;-51
2022/01/12 12:05:00;;;;;;;9.37;5.80;;;;;;;;;;4395858;32;20233;-51
2022/01/12 12:07:26;;;;;;;15.93;8.27;;;;;;;;;;4401096;32;20682;-51
2022/01/12 12:09:57;;;;;;;12.90;7.53;;;;;;;;;;4397739;32;20439;-51
2022/01/12 12:12:28;;;;;;;14.50;8.50;;;;;;;;;;4399584;32;20725;-53
2022/01/12 12:14:57;;;;;;;14.17;7.03;;;;;;;;;;4398834;32;20255;-52
2022/01/12 12:17:25;;;;;;;7.30;4.27;;;;;;;;;;4400714;32;20323;-52
2022/01/12 12:19:51;;;;;;;12.00;6.60;;;;;;;;;;4400505;32;20691;-51
2022/01/12 12:22:20;;;;;;;12.63;6.67;;;;;;;;;;4399394;32;20486;-53
2022/01/12 12:24:52;;;;;;;23.00;9.37;;;;;;;;;;4387149;32;20909;-52
2022/01/12 12:27:19;;;;;;;19.47;10.40;;;;;;;;;;4401134;32;20836;-52
2022/01/12 12:29:46;;;;;;;13.80;6.87;;;;;;;;;;4400749;32;20221;-51
2022/01/12 12:32:13;;;;;;;16.53;5.87;;;;;;;;;;4400364;32;20201;-52
2022/01/12 12:34:40;;;;;;;13.37;6.80;;;;;;;;;;4401041;32;20532;-53
2022/01/12 12:37:08;;;;;;;29.03;14.77;;;;;;;;;;4401000;32;20233;-52
2022/01/12 12:39:37;;;;;;;61.87;30.20;;;;;;;;;;4400741;32;20323;-53
2022/01/12 12:42:05;;;;;;;22.87;11.67;;;;;;;;;;4399809;32;20700;-51
2022/01/12 12:44:32;;;;;;;19.53;12.03;;;;;;;;;;4401716;32;20226;-51
2022/01/12 12:47:08;;;;;;;19.20;10.33;;;;;;;;;;4400959;32;20273;-52
2022/01/12 12:49:58;;;;;;;23.43;12.53;;;;;;;;;;4400561;32;20343;-52
2022/01/12 12:52:32;;;;;;;16.20;10.70;;;;;;;;;;4395909;32;20299;-52
2022/01/12 12:55:01;;;;;;;17.13;10.17;;;;;;;;;;4400586;32;20229;-52
2022/01/12 12:57:28;;;;;;;10.47;7.17;;;;;;;;;;4400968;32;20247;-52
2022/01/12 13:00:13;;;;;;;11.60;6.90;;;;;;;;;;4399479;32;20240;-52
2022/01/12 13:02:41;;;;;;;8.97;5.53;;;;;;;;;;4399667;32;20302;-52
2022/01/12 13:05:10;;;;;;;11.00;7.07;;;;;;;;;;4402438;32;20833;-52
2022/01/12 13:07:42;;;;;;;6.87;5.10;;;;;;;;;;4406052;32;20222;-51
2022/01/12 13:10:13;;;;;;;12.83;5.87;;;;;;;;;;4406180;32;20225;-51
2022/01/12 13:12:39;;;;;;;13.77;7.47;;;;;;;;;;4392662;32;20812;-52
2022/01/12 13:15:08;;;;;;;14.17;8.03;;;;;;;;;;4406154;32;20249;-51
2022/01/12 13:17:33;;;;;;;10.10;5.77;;;;;;;;;;4404932;32;20410;-51
2022/01/12 13:22:29;;;;;;;17.13;8.80;;;;;;;;;;4403977;32;20307;-52
2022/01/12 13:24:56;;;;;;;28.67;15.17;;;;;;;;;;4405107;32;20224;-52
2022/01/12 13:27:24;;;;;;;13.80;8.80;;;;;;;;;;4405502;32;20314;-51
2022/01/12 13:29:51;;;;;;;25.60;14.23;;;;;;;;;;4403961;32;20220;-51
2022/01/12 13:32:17;;;;;;;14.63;8.87;;;;;;;;;;4404365;32;20209;-51
2022/01/12 13:34:57;;;;;;;13.43;7.33;;;;;;;;;;4405418;32;20367;-52
2022/01/12 13:37:23;;;;;;;12.17;7.33;;;;;;;;;;4404301;32;20228;-53
2022/01/12 13:40:11;;;;;;;24.63;10.73;;;;;;;;;;4403977;32;20352;-51
2022/01/12 13:42:54;;;;;;;18.73;10.03;;;;;;;;;;4404604;32;20324;-52
2022/01/12 13:45:38;;;;;;;15.80;8.77;;;;;;;;;;4405825;32;20339;-52
2022/01/12 13:48:12;;;;;;;11.93;6.90;;;;;;;;;;4405807;32;20234;-51
2022/01/12 13:50:39;;;;;;;17.43;9.57;;;;;;;;;;4404395;32;20217;-52
2022/01/12 13:53:05;;;;;;;18.73;9.67;;;;;;;;;;4404964;32;20245;-52
2022/01/12 13:55:31;;;;;;;20.03;11.90;;;;;;;;;;4404818;32;20757;-52
2022/01/12 13:58:06;;;;;;;19.13;11.00;;;;;;;;;;4405325;32;20261;-52
2022/01/12 14:00:34;;;;;;;9.80;7.43;;;;;;;;;;4403837;32;20634;-51
2022/01/12 14:03:01;;;;;;;9.10;6.93;;;;;;;;;;4404402;32;20264;-51
2022/01/12 14:05:37;;;;;;;19.03;9.03;;;;;;;;;;4405709;32;20245;-51
2022/01/12 14:08:05;;;;;;;15.93;8.43;;;;;;;;;;4405966;32;20811;-51
2022/01/12 14:10:31;;;;;;;17.03;8.90;;;;;;;;;;4405025;32;20209;-51
2022/01/12 14:12:57;;;;;;;16.00;8.47;;;;;;;;;;4405431;32;20314;-52
2022/01/12 14:15:28;;;;;;;18.43;9.00;;;;;;;;;;4404354;32;20327;-51
2022/01/12 14:17:54;;;;;;;20.83;8.30;;;;;;;;;;4402427;32;20283;-52
2022/01/12 14:20:30;;;;;;;12.83;8.63;;;;;;;;;;4403264;32;20300;-52
2022/01/12 14:23:01;;;;;;;13.20;8.10;;;;;;;;;;4402875;32;20747;-51
2022/01/12 14:25:56;;;;;;;10.17;7.07;;;;;;;;;;4403074;32;20251;-51
2022/01/12 14:28:29;;;;;;;30.33;12.97;;;;;;;;;;4392682;32;20249;-51
2022/01/12 14:30:56;;;;;;;30.50;14.47;;;;;;;;;;4402641;32;20205;-51
2022/01/12 14:33:22;;;;;;;22.90;12.03;;;;;;;;;;4403125;32;20598;-52
2022/01/12 14:35:48;;;;;;;22.13;12.03;;;;;;;;;;4402095;32;20276;-52
2022/01/12 14:38:14;;;;;;;35.37;14.20;;;;;;;;;;4403572;32;20650;-52
2022/01/12 14:40:41;;;;;;;22.73;11.07;;;;;;;;;;4402396;32;20351;-51
2022/01/12 14:43:07;;;;;;;33.77;16.03;;;;;;;;;;4402897;32;20615;-51
2022/01/12 14:45:36;;;;;;;25.70;11.83;;;;;;;;;;4399943;32;20314;-53
2022/01/12 14:48:04;;;;;;;18.07;9.37;;;;;;;;;;4402921;32;20233;-52
2022/01/12 14:50:31;;;;;;;22.00;11.03;;;;;;;;;;4402004;32;20268;-51
2022/01/12 14:52:57;;;;;;;29.70;15.73;;;;;;;;;;4403173;32;20290;-51
2022/01/12 14:55:24;;;;;;;23.63;11.40;;;;;;;;;;4401948;32;20299;-52
2022/01/12 14:57:51;;;;;;;29.13;14.13;;;;;;;;;;4401569;32;20256;-52
2022/01/12 15:00:24;;;;;;;31.97;17.90;;;;;;;;;;4401961;32;20403;-51
2022/01/12 15:02:57;;;;;;;39.00;18.97;;;;;;;;;;4402537;32;20234;-51
2022/01/12 15:05:23;;;;;;;26.77;14.43;;;;;;;;;;4393792;32;20288;-51
2022/01/12 15:07:50;;;;;;;23.10;12.03;;;;;;;;;;4402492;32;20279;-51
2022/01/12 15:10:16;;;;;;;21.67;12.83;;;;;;;;;;4398507;32;20198;-51
2022/01/12 15:12:42;;;;;;;38.33;19.33;;;;;;;;;;4401999;32;20264;-51
2022/01/12 15:15:11;;;;;;;35.73;17.73;;;;;;;;;;4399706;32;20682;-51
2022/01/12 15:17:40;;;;;;;29.30;11.73;;;;;;;;;;4400882;32;20221;-51
2022/01/12 15:20:08;;;;;;;42.17;19.00;;;;;;;;;;4401199;32;20255;-50
2022/01/12 15:22:39;;;;;;;38.27;20.33;;;;;;;;;;4402434;32;20226;-51
2022/01/12 15:25:06;;;;;;;44.63;22.27;;;;;;;;;;4402228;32;20698;-50
2022/01/12 15:27:31;;;;;;;57.20;27.93;;;;;;;;;;4402508;32;20610;-51
2022/01/12 15:29:57;;;;;;;23.73;13.03;;;;;;;;;;4401019;32;20326;-51
2022/01/12 15:32:26;;;;;;;31.40;17.77;;;;;;;;;;4401879;32;20330;-52
2022/01/12 15:34:55;;;;;;;18.30;9.87;;;;;;;;;;4402070;32;20214;-51
2022/01/12 15:37:22;;;;;;;31.07;16.87;;;;;;;;;;4393707;32;20218;-51
2022/01/12 15:39:48;;;;;;;21.63;13.30;;;;;;;;;;4402338;32;20251;-51
2022/01/12 15:42:13;;;;;;;25.33;14.83;;;;;;;;;;4401854;32;20705;-52
2022/01/12 15:44:39;;;;;;;47.03;18.77;;;;;;;;;;4401807;32;20272;-53
2022/01/12 15:47:06;;;;;;;32.23;17.43;;;;;;;;;;4400480;32;20320;-51
2022/01/12 15:49:31;;;;;;;44.70;23.43;;;;;;;;;;4398235;32;20251;-51
2022/01/12 15:51:57;;;;;;;39.33;18.53;;;;;;;;;;4400413;32;20213;-52
2022/01/12 15:54:23;;;;;;;28.57;17.70;;;;;;;;;;4401763;32;20309;-51
2022/01/12 15:56:48;;;;;;;30.60;14.93;;;;;;;;;;4397931;32;20340;-52
2022/01/12 15:59:14;;;;;;;34.17;18.50;;;;;;;;;;4401602;32;20225;-52
2022/01/12 16:01:39;;;;;;;30.87;16.17;;;;;;;;;;4401549;32;20229;-51
2022/01/12 16:04:08;;;;;;;28.50;11.87;;;;;;;;;;4399626;32;20337;-51
2022/01/12 16:06:34;;;;;;;17.97;8.77;;;;;;;;;;4400978;32;20793;-51
2022/01/12 16:09:00;;;;;;;15.83;10.17;;;;;;;;;;4402228;32;20396;-51
2022/01/12 16:11:25;;;;;;;38.97;20.60;;;;;;;;;;4401923;32;20246;-51
2022/01/12 16:13:53;;;;;;;28.30;13.27;;;;;;;;;;4401476;32;20265;-51
2022/01/12 16:16:20;;;;;;;20.17;8.93;;;;;;;;;;4401940;32;20244;-50
2022/01/12 16:18:46;;;;;;;32.37;16.43;;;;;;;;;;4401575;32;20232;-51
2022/01/12 16:21:12;;;;;;;23.57;14.07;;;;;;;;;;4401816;32;20245;-51
2022/01/12 16:23:37;;;;;;;14.40;9.10;;;;;;;;;;4398259;32;20285;-51
2022/01/12 16:26:04;;;;;;;17.43;9.53;;;;;;;;;;4401550;32;20245;-51
2022/01/12 16:28:30;;;;;;;38.50;17.40;;;;;;;;;;4401164;32;20383;-51